Time;durP1;ratioP1;P1;durP2;ratioP2;P2;SDS_P1;SDS_P2;PMS_P1;PMS_P2;Temp;Humidity;BMP_temperature;BMP_pressure;BME280_temperature;BME280_humidity;BME280_pressure;Samples;Min_cycle;Max_cycle;Signal;HPM_P1;HPM_P2
2023/12/25 00:40:45;;;;;;;0.20;0.20;;;;;;;;;;5022851;28;20025;-83
2023/12/25 00:43:16;;;;;;;0.30;0.30;;;;;;;;;;5005208;28;20044;-83
2023/12/25 00:45:49;;;;;;;0.28;0.28;;;;;;;;;;5019576;28;20035;-83
2023/12/25 00:48:19;;;;;;;0.25;0.25;;;;;;;;;;5005176;28;20049;-83
2023/12/25 00:50:50;;;;;;;0.20;0.20;;;;;;;;;;5001899;28;20030;-84
2023/12/25 00:53:25;;;;;;;0.30;0.30;;;;;;;;;;5021119;28;20030;-83
2023/12/25 00:59:25;;;;;;;0.30;0.30;;;;;;;;;;4976962;28;20584;-82
2023/12/25 01:01:54;;;;;;;0.20;0.20;;;;;;;;;;5035421;28;20086;-83
2023/12/25 01:04:40;;;;;;;0.30;0.30;;;;;;;;;;5041999;28;20054;-83
2023/12/25 01:07:43;;;;;;;0.30;0.30;;;;;;;;;;5041998;28;20090;-83
2023/12/25 01:10:50;;;;;;;0.28;0.28;;;;;;;;;;5025424;28;20034;-82
2023/12/25 01:13:19;;;;;;;0.40;0.40;;;;;;;;;;5019973;28;20027;-82
2023/12/25 01:16:07;;;;;;;0.20;0.20;;;;;;;;;;5005187;28;20026;-84
2023/12/25 01:18:37;;;;;;;0.30;0.30;;;;;;;;;;5007036;28;20039;-84
2023/12/25 01:24:31;;;;;;;0.30;0.30;;;;;;;;;;5047796;28;20095;-83
2023/12/25 01:27:18;;;;;;;0.40;0.40;;;;;;;;;;5028875;28;20050;-83
2023/12/25 01:29:59;;;;;;;0.30;0.30;;;;;;;;;;5037835;28;20045;-85
2023/12/25 01:32:29;;;;;;;0.30;0.30;;;;;;;;;;5020731;28;20038;-83
2023/12/25 01:35:38;;;;;;;0.40;0.40;;;;;;;;;;5004596;28;20042;-82
2023/12/25 02:50:48;;;;;;;0.30;0.30;;;;;;;;;;1348412;23;20369;-84
2023/12/25 02:53:24;;;;;;;0.20;0.20;;;;;;;;;;4965357;28;20077;-84
2023/12/25 02:55:50;;;;;;;0.40;0.40;;;;;;;;;;4998579;28;20026;-84
2023/12/25 02:58:16;;;;;;;0.30;0.30;;;;;;;;;;4966974;28;20023;-83
2023/12/25 03:00:53;;;;;;;;;;;;;;;;;;4971222;28;20031;-84
2023/12/25 03:03:46;;;;;;;0.30;0.30;;;;;;;;;;4963198;29;19918;-84
2023/12/25 03:06:23;;;;;;;0.30;0.30;;;;;;;;;;4986112;28;20130;-83
2023/12/25 03:09:19;;;;;;;0.28;0.28;;;;;;;;;;5018820;28;20049;-84
2023/12/25 03:11:50;;;;;;;0.30;0.30;;;;;;;;;;5017803;28;20086;-84
2023/12/25 03:14:17;;;;;;;0.30;0.30;;;;;;;;;;4978530;28;20102;-83
2023/12/25 03:16:44;;;;;;;0.40;0.40;;;;;;;;;;4982667;28;20102;-84
2023/12/25 03:19:17;;;;;;;0.30;0.30;;;;;;;;;;4997834;28;20038;-85
2023/12/25 03:21:48;;;;;;;0.30;0.30;;;;;;;;;;4991297;28;20051;-82
2023/12/25 03:24:16;;;;;;;0.20;0.20;;;;;;;;;;4977802;28;20078;-83
2023/12/25 03:26:51;;;;;;;0.38;0.38;;;;;;;;;;4998743;28;20039;-83
2023/12/25 03:33:27;;;;;;;0.38;0.38;;;;;;;;;;5005589;28;20050;-83
2023/12/25 03:36:17;;;;;;;0.32;0.32;;;;;;;;;;4999012;28;20057;-81
2023/12/25 03:38:43;;;;;;;0.20;0.20;;;;;;;;;;4977809;28;20537;-84
2023/12/25 03:41:23;;;;;;;0.32;0.32;;;;;;;;;;4979504;28;20047;-82
2023/12/25 03:44:08;;;;;;;0.20;0.20;;;;;;;;;;4998380;28;20116;-83
2023/12/25 03:46:36;;;;;;;0.30;0.30;;;;;;;;;;4994481;28;20026;-85
2023/12/25 03:51:59;;;;;;;0.30;0.30;;;;;;;;;;5004005;28;20300;-82
2023/12/25 03:54:54;;;;;;;0.20;0.20;;;;;;;;;;4990116;28;20085;-83
2023/12/25 03:57:21;;;;;;;0.30;0.30;;;;;;;;;;4974395;28;20058;-83
2023/12/25 03:59:57;;;;;;;0.20;0.20;;;;;;;;;;4993840;28;20098;-80
2023/12/25 04:02:25;;;;;;;0.20;0.20;;;;;;;;;;5015617;28;20102;-84
2023/12/25 04:05:14;;;;;;;0.30;0.30;;;;;;;;;;5016123;28;20049;-84
2023/12/25 04:07:47;;;;;;;0.30;0.30;;;;;;;;;;5000744;28;20033;-81
2023/12/25 04:10:17;;;;;;;0.20;0.20;;;;;;;;;;5012037;28;20057;-83
2023/12/25 04:12:46;;;;;;;0.30;0.30;;;;;;;;;;5011903;28;20053;-82
2023/12/25 04:15:27;;;;;;;0.30;0.30;;;;;;;;;;5013896;28;20081;-83
2023/12/25 04:18:22;;;;;;;0.30;0.30;;;;;;;;;;5001596;28;20047;-81
2023/12/25 04:20:59;;;;;;;0.30;0.30;;;;;;;;;;4996698;28;20058;-83
2023/12/25 04:23:25;;;;;;;0.20;0.20;;;;;;;;;;5010382;28;20057;-82
2023/12/25 04:25:52;;;;;;;0.20;0.20;;;;;;;;;;4987929;28;20050;-81
2023/12/25 04:28:19;;;;;;;0.30;0.30;;;;;;;;;;4965020;28;20049;-84
2023/12/25 04:31:27;;;;;;;0.20;0.20;;;;;;;;;;4977614;28;20074;-84
2023/12/25 04:37:33;;;;;;;0.30;0.30;;;;;;;;;;4978893;29;20104;-83
2023/12/25 04:40:01;;;;;;;0.30;0.30;;;;;;;;;;4998902;28;20054;-83
2023/12/25 04:42:27;;;;;;;0.30;0.30;;;;;;;;;;5014783;28;20126;-85
2023/12/25 04:45:04;;;;;;;0.28;0.28;;;;;;;;;;4989888;28;20051;-83
2023/12/25 04:47:36;;;;;;;0.32;0.32;;;;;;;;;;4996099;28;20078;-82
2023/12/25 04:50:50;;;;;;;0.20;0.20;;;;;;;;;;5007871;28;20041;-84
2023/12/25 04:53:24;;;;;;;0.30;0.30;;;;;;;;;;5016758;28;20058;-83
2023/12/25 04:56:03;;;;;;;0.30;0.30;;;;;;;;;;5017229;28;20034;-83
2023/12/25 05:01:24;;;;;;;0.22;0.22;;;;;;;;;;5009965;28;20049;-82
2023/12/25 05:04:06;;;;;;;0.20;0.20;;;;;;;;;;4930872;29;20048;-84
2023/12/25 05:06:32;;;;;;;0.20;0.20;;;;;;;;;;4955366;28;20137;-81
2023/12/25 05:09:00;;;;;;;0.30;0.30;;;;;;;;;;4975805;28;20051;-83
2023/12/25 05:11:42;;;;;;;0.30;0.30;;;;;;;;;;4958808;29;20042;-83
2023/12/25 05:14:12;;;;;;;0.28;0.28;;;;;;;;;;4965939;28;20106;-82
2023/12/25 05:16:53;;;;;;;0.30;0.30;;;;;;;;;;5009948;28;20081;-85
2023/12/25 05:22:44;;;;;;;0.22;0.22;;;;;;;;;;5021148;28;20045;-82
2023/12/25 05:25:18;;;;;;;0.30;0.30;;;;;;;;;;4997676;28;20045;-82
2023/12/25 05:27:46;;;;;;;0.30;0.30;;;;;;;;;;4999169;28;20082;-81
2023/12/25 05:30:12;;;;;;;0.30;0.30;;;;;;;;;;4959140;29;20102;-82
2023/12/25 05:32:50;;;;;;;0.20;0.20;;;;;;;;;;4980853;28;20019;-82
2023/12/25 05:35:35;;;;;;;0.30;0.30;;;;;;;;;;4989942;28;20041;-81
2023/12/25 05:38:27;;;;;;;0.30;0.30;;;;;;;;;;4984477;28;20022;-83
2023/12/25 05:41:33;;;;;;;0.30;0.30;;;;;;;;;;5001245;28;20035;-85
2023/12/25 05:44:21;;;;;;;0.30;0.30;;;;;;;;;;5001553;28;20050;-86
2023/12/25 05:47:00;;;;;;;0.30;0.30;;;;;;;;;;5001622;28;20054;-82
2023/12/25 05:49:27;;;;;;;0.22;0.22;;;;;;;;;;4999986;28;20039;-82
2023/12/25 05:51:59;;;;;;;0.30;0.30;;;;;;;;;;4995674;28;20039;-84
2023/12/25 05:54:34;;;;;;;0.20;0.20;;;;;;;;;;4995975;28;20043;-83
2023/12/25 05:57:11;;;;;;;0.30;0.30;;;;;;;;;;4998662;28;20408;-82
2023/12/25 06:00:00;;;;;;;0.30;0.30;;;;;;;;;;4980750;29;20051;-84
2023/12/25 06:02:44;;;;;;;0.30;0.30;;;;;;;;;;5012862;28;20123;-83
2023/12/25 06:05:15;;;;;;;0.30;0.30;;;;;;;;;;4980672;28;20034;-83
2023/12/25 06:08:20;;;;;;;0.30;0.30;;;;;;;;;;4988731;28;20095;-83
2023/12/25 06:14:09;;;;;;;0.30;0.30;;;;;;;;;;4985032;28;20132;-85
2023/12/25 06:16:36;;;;;;;0.30;0.30;;;;;;;;;;4965389;28;20033;-82
2023/12/25 06:19:11;;;;;;;0.30;0.30;;;;;;;;;;4996043;28;20042;-82
2023/12/25 06:21:41;;;;;;;0.30;0.30;;;;;;;;;;4999694;28;20054;-85
2023/12/25 06:24:11;;;;;;;0.30;0.30;;;;;;;;;;5001086;28;20055;-84
2023/12/25 06:26:37;;;;;;;0.20;0.20;;;;;;;;;;5007986;28;20493;-84
2023/12/25 06:29:03;;;;;;;0.25;0.25;;;;;;;;;;4957593;28;20066;-84
2023/12/25 06:31:54;;;;;;;0.30;0.30;;;;;;;;;;4971120;28;20027;-84
2023/12/25 06:34:41;;;;;;;0.30;0.30;;;;;;;;;;4981502;28;20058;-83
2023/12/25 06:37:10;;;;;;;0.20;0.20;;;;;;;;;;4989047;28;20053;-82
2023/12/25 06:39:42;;;;;;;0.20;0.20;;;;;;;;;;4995563;28;20069;-85
2023/12/25 06:42:11;;;;;;;0.40;0.40;;;;;;;;;;4962694;28;20031;-83
2023/12/25 06:44:40;;;;;;;0.20;0.20;;;;;;;;;;4995607;28;20129;-82
2023/12/25 06:47:43;;;;;;;0.20;0.20;;;;;;;;;;5002766;28;20058;-84
2023/12/25 06:50:11;;;;;;;0.30;0.30;;;;;;;;;;5015976;28;20057;-83
2023/12/25 06:52:48;;;;;;;0.32;0.32;;;;;;;;;;5004264;28;20046;-81
2023/12/25 06:55:15;;;;;;;0.40;0.40;;;;;;;;;;5018548;28;20109;-83
2023/12/25 06:57:52;;;;;;;0.40;0.40;;;;;;;;;;5013565;28;20111;-83
2023/12/25 07:00:26;;;;;;;0.20;0.20;;;;;;;;;;4997851;28;20074;-82
2023/12/25 07:03:34;;;;;;;0.30;0.30;;;;;;;;;;4992294;28;20022;-83
2023/12/25 07:06:00;;;;;;;0.40;0.40;;;;;;;;;;4962349;28;20146;-82
2023/12/25 07:08:33;;;;;;;0.40;0.40;;;;;;;;;;4961481;28;20052;-84
2023/12/25 07:11:02;;;;;;;0.32;0.32;;;;;;;;;;4960691;29;20015;-83
2023/12/25 07:13:37;;;;;;;0.30;0.30;;;;;;;;;;4999713;28;20397;-82
2023/12/25 07:16:05;;;;;;;0.30;0.30;;;;;;;;;;5002763;28;20069;-83
2023/12/25 07:18:46;;;;;;;0.40;0.40;;;;;;;;;;5016825;28;20074;-82
2023/12/25 07:21:13;;;;;;;0.30;0.30;;;;;;;;;;5010895;28;20050;-82
2023/12/25 07:23:45;;;;;;;0.30;0.30;;;;;;;;;;4995839;28;20046;-82
2023/12/25 07:26:24;;;;;;;0.20;0.20;;;;;;;;;;4996689;28;20039;-82
2023/12/25 07:28:50;;;;;;;0.40;0.40;;;;;;;;;;4996565;28;20041;-83
2023/12/25 07:34:43;;;;;;;0.40;0.40;;;;;;;;;;5005959;28;20053;-83
2023/12/25 07:40:15;;;;;;;0.30;0.30;;;;;;;;;;4978758;28;20042;-83
2023/12/25 07:42:41;;;;;;;0.30;0.30;;;;;;;;;;4992467;28;20097;-85
2023/12/25 07:45:07;;;;;;;0.30;0.30;;;;;;;;;;4978493;28;20042;-82
2023/12/25 07:47:37;;;;;;;0.30;0.30;;;;;;;;;;4996996;28;20077;-83
2023/12/25 07:50:20;;;;;;;0.30;0.30;;;;;;;;;;4994953;28;20143;-83
2023/12/25 07:53:22;;;;;;;0.30;0.30;;;;;;;;;;4964728;28;20062;-83
2023/12/25 07:55:51;;;;;;;0.28;0.28;;;;;;;;;;4978369;29;20050;-83
2023/12/25 07:58:27;;;;;;;0.30;0.30;;;;;;;;;;4966469;29;20043;-84
2023/12/25 08:00:53;;;;;;;0.20;0.20;;;;;;;;;;4965670;28;20528;-83
2023/12/25 08:03:20;;;;;;;0.30;0.30;;;;;;;;;;4987447;28;20039;-83
2023/12/25 08:05:46;;;;;;;0.30;0.30;;;;;;;;;;5000785;28;20053;-83
2023/12/25 08:08:12;;;;;;;0.30;0.30;;;;;;;;;;4982918;28;20408;-83
2023/12/25 08:10:38;;;;;;;0.30;0.30;;;;;;;;;;4972287;28;20078;-83
2023/12/25 08:13:09;;;;;;;0.30;0.30;;;;;;;;;;4976723;28;20054;-82
2023/12/25 08:15:36;;;;;;;0.30;0.30;;;;;;;;;;4976201;28;20043;-83
2023/12/25 08:18:04;;;;;;;0.30;0.30;;;;;;;;;;4994074;28;20034;-82
2023/12/25 08:20:31;;;;;;;0.28;0.28;;;;;;;;;;4977393;28;20030;-83
2023/12/25 08:23:07;;;;;;;0.30;0.30;;;;;;;;;;5004656;28;20042;-84
2023/12/25 08:25:41;;;;;;;0.30;0.30;;;;;;;;;;4976314;28;20047;-82
2023/12/25 08:28:08;;;;;;;0.30;0.30;;;;;;;;;;4985141;28;20474;-82
2023/12/25 08:30:36;;;;;;;0.30;0.30;;;;;;;;;;5001606;28;20073;-82
2023/12/25 08:33:12;;;;;;;0.20;0.20;;;;;;;;;;4994797;28;20065;-83
2023/12/25 08:35:42;;;;;;;0.30;0.30;;;;;;;;;;4977455;28;20087;-85
2023/12/25 08:38:09;;;;;;;0.30;0.30;;;;;;;;;;4989872;28;20062;-81
2023/12/25 08:40:39;;;;;;;0.30;0.30;;;;;;;;;;4991577;28;20038;-81
2023/12/25 08:43:11;;;;;;;0.30;0.30;;;;;;;;;;4994699;28;20055;-81
2023/12/25 08:45:40;;;;;;;0.30;0.30;;;;;;;;;;5001080;28;20039;-81
2023/12/25 08:51:31;;;;;;;0.20;0.20;;;;;;;;;;4977936;28;20031;-84
2023/12/25 08:57:45;;;;;;;0.40;0.40;;;;;;;;;;5001563;28;20066;-84
2023/12/25 09:03:37;;;;;;;0.20;0.20;;;;;;;;;;4997617;28;20093;-82
2023/12/25 09:06:03;;;;;;;0.25;0.25;;;;;;;;;;4997130;28;20054;-83
2023/12/25 09:08:33;;;;;;;0.30;0.30;;;;;;;;;;4992354;28;20047;-83
2023/12/25 09:11:01;;;;;;;0.40;0.40;;;;;;;;;;4981256;28;20039;-82
2023/12/25 09:13:27;;;;;;;0.20;0.20;;;;;;;;;;4991116;28;20077;-83
2023/12/25 09:15:55;;;;;;;0.30;0.30;;;;;;;;;;4998659;28;20046;-82
2023/12/25 09:18:24;;;;;;;0.30;0.30;;;;;;;;;;4982540;28;20022;-82
2023/12/25 09:20:53;;;;;;;0.20;0.20;;;;;;;;;;4999452;28;20061;-82
2023/12/25 09:23:29;;;;;;;0.30;0.30;;;;;;;;;;4983958;28;20067;-82
2023/12/25 09:26:03;;;;;;;0.30;0.30;;;;;;;;;;4999754;28;20053;-82
2023/12/25 09:28:37;;;;;;;0.20;0.20;;;;;;;;;;4960552;28;20019;-83
2023/12/25 09:31:39;;;;;;;0.30;0.30;;;;;;;;;;4970735;28;20049;-84
2023/12/25 09:34:07;;;;;;;0.30;0.30;;;;;;;;;;4962865;28;20054;-82
2023/12/25 09:36:34;;;;;;;0.40;0.40;;;;;;;;;;4997974;28;20054;-84
2023/12/25 09:39:09;;;;;;;0.30;0.30;;;;;;;;;;4996733;28;20039;-82
2023/12/25 09:44:42;;;;;;;0.30;0.30;;;;;;;;;;4970441;29;20050;-83
2023/12/25 09:47:19;;;;;;;0.30;0.30;;;;;;;;;;4991789;28;20051;-83
2023/12/25 09:49:50;;;;;;;0.30;0.30;;;;;;;;;;4974773;28;20039;-82
2023/12/25 09:52:17;;;;;;;0.35;0.35;;;;;;;;;;4978490;28;20089;-83
2023/12/25 09:54:52;;;;;;;0.28;0.28;;;;;;;;;;5013463;28;20042;-80
2023/12/25 09:57:41;;;;;;;0.30;0.30;;;;;;;;;;5020736;28;20050;-83
2023/12/25 10:00:36;;;;;;;;;;;;;;;;;;;;;
2023/12/25 10:03:33;;;;;;;0.30;0.30;;;;;;;;;;5019343;28;20038;-83
2023/12/25 10:06:09;;;;;;;0.30;0.30;;;;;;;;;;4992484;28;20060;-83
2023/12/25 10:08:56;;;;;;;0.30;0.30;;;;;;;;;;5019743;28;20054;-81
2023/12/25 10:11:36;;;;;;;0.28;0.28;;;;;;;;;;5022952;28;20065;-82
2023/12/25 10:14:28;;;;;;;0.30;0.30;;;;;;;;;;5004386;28;20037;-84
2023/12/25 10:17:20;;;;;;;0.30;0.30;;;;;;;;;;5019872;28;20033;-83
2023/12/25 10:19:56;;;;;;;0.30;0.30;;;;;;;;;;4981207;28;20028;-82
2023/12/25 10:23:09;;;;;;;;;;;;;;;;;;;;;
2023/12/25 10:29:51;;;;;;;0.40;0.40;;;;;;;;;;4990327;28;20062;-82
2023/12/25 10:32:38;;;;;;;0.30;0.30;;;;;;;;;;4995395;28;20037;-83
2023/12/25 10:45:27;;;;;;;0.30;0.30;;;;;;;;;;4986074;28;20034;-82
2023/12/25 10:48:19;;;;;;;0.30;0.30;;;;;;;;;;4999607;28;20026;-83
2023/12/25 10:51:23;;;;;;;0.13;0.13;;;;;;;;;;4996632;28;20047;-82
2023/12/25 10:57:42;;;;;;;0.30;0.30;;;;;;;;;;4977179;29;20124;-82
2023/12/25 11:00:10;;;;;;;0.30;0.30;;;;;;;;;;4981403;28;20038;-82
2023/12/25 11:02:40;;;;;;;0.30;0.30;;;;;;;;;;4999026;28;20059;-82
2023/12/25 11:05:30;;;;;;;0.30;0.30;;;;;;;;;;4979355;29;20082;-82
2023/12/25 11:08:00;;;;;;;0.30;0.30;;;;;;;;;;4979105;29;20070;-82
2023/12/25 11:10:47;;;;;;;0.30;0.30;;;;;;;;;;4976532;29;20051;-82
2023/12/25 11:13:20;;;;;;;0.30;0.30;;;;;;;;;;4979442;28;20048;-83
2023/12/25 11:15:49;;;;;;;0.30;0.30;;;;;;;;;;4979723;28;20032;-81
2023/12/25 11:18:22;;;;;;;0.30;0.30;;;;;;;;;;4979932;28;20066;-82
2023/12/25 11:21:09;;;;;;;0.30;0.30;;;;;;;;;;4976648;28;20043;-82
2023/12/25 13:33:30;;;;;;;0.25;0.25;;;;;;;;;;1286954;23;20318;-82
2023/12/25 13:36:20;;;;;;;0.38;0.38;;;;;;;;;;4984368;28;20059;-83
2023/12/25 13:38:52;;;;;;;0.30;0.30;;;;;;;;;;4978881;28;20035;-83
2023/12/25 13:41:31;;;;;;;0.30;0.30;;;;;;;;;;4980309;28;20129;-83
2023/12/25 13:44:11;;;;;;;0.30;0.30;;;;;;;;;;4985887;28;20019;-81
2023/12/25 13:47:09;;;;;;;0.30;0.30;;;;;;;;;;5334794;23;20047;-83
2023/12/25 13:49:35;;;;;;;0.30;0.30;;;;;;;;;;4963978;28;20030;-84
2023/12/25 13:52:12;;;;;;;0.30;0.30;;;;;;;;;;4978471;28;20069;-83
2023/12/25 13:55:16;;;;;;;0.20;0.20;;;;;;;;;;4999916;28;20043;-84
2023/12/25 13:57:50;;;;;;;0.40;0.40;;;;;;;;;;5002299;28;20053;-84
2023/12/25 14:00:22;;;;;;;0.30;0.30;;;;;;;;;;4999676;28;20132;-83
2023/12/25 14:03:33;;;;;;;0.30;0.30;;;;;;;;;;4981944;28;20047;-82
2023/12/25 14:06:44;;;;;;;0.30;0.30;;;;;;;;;;4981802;28;20054;-83
2023/12/25 14:09:25;;;;;;;0.30;0.30;;;;;;;;;;4984959;28;20051;-83
2023/12/25 14:12:01;;;;;;;0.30;0.30;;;;;;;;;;4981921;28;20024;-84
2023/12/25 14:17:51;;;;;;;0.40;0.40;;;;;;;;;;4997650;28;20026;-85
2023/12/25 14:24:01;;;;;;;0.30;0.30;;;;;;;;;;4982190;28;20046;-82
2023/12/25 15:44:35;;;;;;;0.20;0.20;;;;;;;;;;4991344;28;20062;-91
2023/12/25 15:47:08;;;;;;;0.28;0.28;;;;;;;;;;6051243;23;20052;-90
2023/12/25 15:52:27;;;;;;;0.30;0.30;;;;;;;;;;5724941;23;20112;-90
2023/12/25 16:01:10;;;;;;;0.38;0.38;;;;;;;;;;5603363;23;20956;-89
2023/12/25 16:14:00;;;;;;;0.40;0.40;;;;;;;;;;5086430;23;20083;-89
2023/12/25 16:21:43;;;;;;;0.20;0.20;;;;;;;;;;5475029;23;20046;-91
2023/12/25 16:24:18;;;;;;;0.20;0.20;;;;;;;;;;5740821;23;20054;-91
2023/12/25 18:31:24;;;;;;;0.30;0.30;;;;;;;;;;5362213;23;20065;-91
2023/12/25 18:33:51;;;;;;;0.30;0.30;;;;;;;;;;5365159;23;20043;-91
2023/12/25 19:46:33;;;;;;;0.40;0.40;;;;;;;;;;5005271;26;20050;-84
2023/12/25 19:49:18;;;;;;;0.30;0.30;;;;;;;;;;4998091;28;20113;-84
2023/12/25 19:52:07;;;;;;;0.20;0.20;;;;;;;;;;5011498;28;20044;-85
2023/12/25 20:05:43;;;;;;;0.30;0.30;;;;;;;;;;5136197;23;20122;-85
2023/12/25 20:08:13;;;;;;;;;;;;;;;;;;4974978;28;20055;-84
2023/12/25 20:11:00;;;;;;;0.40;0.40;;;;;;;;;;4980057;28;19906;-83
2023/12/25 20:13:53;;;;;;;0.30;0.30;;;;;;;;;;4961974;29;20047;-84
2023/12/25 20:16:19;;;;;;;0.20;0.20;;;;;;;;;;4959540;29;20050;-86
2023/12/25 20:19:04;;;;;;;0.20;0.20;;;;;;;;;;4968032;29;20043;-85
2023/12/25 20:21:50;;;;;;;0.35;0.35;;;;;;;;;;4979210;28;20055;-86
2023/12/25 20:28:39;;;;;;;0.35;0.35;;;;;;;;;;4970444;29;20107;-86
2023/12/25 20:31:36;;;;;;;0.38;0.38;;;;;;;;;;4976737;29;20055;-85
2023/12/25 20:34:24;;;;;;;0.30;0.30;;;;;;;;;;4979221;28;20042;-86
2023/12/25 20:37:11;;;;;;;0.40;0.40;;;;;;;;;;4995748;28;20094;-84
2023/12/25 20:39:54;;;;;;;0.20;0.20;;;;;;;;;;4995203;28;20679;-86
2023/12/25 20:42:20;;;;;;;0.30;0.30;;;;;;;;;;4947939;29;20043;-85
2023/12/25 20:44:46;;;;;;;0.30;0.30;;;;;;;;;;4945643;29;20058;-86
2023/12/25 20:47:18;;;;;;;0.20;0.20;;;;;;;;;;4963363;28;20048;-84
2023/12/25 20:49:47;;;;;;;0.20;0.20;;;;;;;;;;4997588;28;20038;-85
2023/12/25 20:56:03;;;;;;;0.30;0.30;;;;;;;;;;5001804;28;20033;-84
2023/12/25 20:58:56;;;;;;;0.20;0.20;;;;;;;;;;5002371;28;20023;-85
2023/12/25 21:07:11;;;;;;;0.40;0.40;;;;;;;;;;5243243;23;20046;-86
2023/12/25 21:09:46;;;;;;;0.25;0.25;;;;;;;;;;5036741;28;20041;-84
2023/12/25 21:15:55;;;;;;;0.30;0.30;;;;;;;;;;5018824;28;20046;-85
2023/12/25 21:18:31;;;;;;;0.30;0.30;;;;;;;;;;5019510;28;20050;-85
2023/12/25 21:21:06;;;;;;;0.30;0.30;;;;;;;;;;4981123;28;20053;-82
2023/12/25 21:23:50;;;;;;;0.30;0.30;;;;;;;;;;4982622;28;20031;-83
2023/12/25 21:26:25;;;;;;;0.40;0.40;;;;;;;;;;4998852;28;20051;-85
2023/12/25 21:32:17;;;;;;;0.20;0.20;;;;;;;;;;5027694;28;20108;-84
2023/12/25 21:34:48;;;;;;;0.30;0.30;;;;;;;;;;5016865;28;20081;-83
2023/12/25 21:38:18;;;;;;;;;;;;;;;;;;;;;
2023/12/25 21:40:35;;;;;;;0.30;0.30;;;;;;;;;;4986569;28;20049;-84
2023/12/25 21:43:04;;;;;;;0.32;0.32;;;;;;;;;;4995920;28;20046;-85
2023/12/25 21:45:30;;;;;;;0.30;0.30;;;;;;;;;;4977823;28;20038;-84
2023/12/25 21:47:57;;;;;;;0.30;0.30;;;;;;;;;;5003714;28;20070;-85
2023/12/25 21:50:23;;;;;;;0.30;0.30;;;;;;;;;;5001633;28;20022;-84
2023/12/25 21:56:10;;;;;;;0.30;0.30;;;;;;;;;;5024727;28;20032;-86
2023/12/25 21:58:54;;;;;;;0.30;0.30;;;;;;;;;;5002882;28;20050;-86
2023/12/25 22:01:57;;;;;;;0.30;0.30;;;;;;;;;;5031750;28;20028;-85
2023/12/25 22:04:33;;;;;;;0.20;0.20;;;;;;;;;;5036408;28;20072;-86
2023/12/25 22:07:02;;;;;;;0.20;0.20;;;;;;;;;;5020903;28;20053;-85
2023/12/25 22:09:41;;;;;;;0.40;0.40;;;;;;;;;;5005096;28;20042;-84
2023/12/25 22:14:59;;;;;;;0.30;0.30;;;;;;;;;;5003980;28;20122;-85
2023/12/25 22:17:25;;;;;;;0.30;0.30;;;;;;;;;;4995327;28;20046;-85
2023/12/25 22:19:51;;;;;;;0.20;0.20;;;;;;;;;;5007841;28;20044;-84
2023/12/25 22:22:17;;;;;;;0.22;0.22;;;;;;;;;;5002641;28;20044;-85
2023/12/25 22:24:45;;;;;;;0.20;0.20;;;;;;;;;;4985765;28;20044;-85
2023/12/25 22:27:11;;;;;;;0.30;0.30;;;;;;;;;;4996308;28;20041;-84
2023/12/25 22:29:49;;;;;;;0.30;0.30;;;;;;;;;;5015584;28;20069;-87
